createdAt,value
2019-02-11T00:01:38.925Z,22.82
2019-02-11T00:04:15.719Z,26.17
2019-02-11T00:06:52.481Z,19.90
2019-02-11T00:09:29.261Z,34.27
2019-02-11T00:12:05.923Z,20.00
2019-02-11T00:14:42.715Z,23.98
2019-02-11T00:17:19.582Z,23.95
2019-02-11T00:19:56.364Z,32.78
2019-02-11T00:22:33.246Z,26.37
2019-02-11T00:25:10.025Z,18.17
2019-02-11T00:27:46.765Z,30.77
2019-02-11T00:30:23.568Z,13.22
2019-02-11T00:33:00.433Z,9.18
2019-02-11T00:35:37.328Z,43.87
2019-02-11T00:38:14.096Z,24.07
2019-02-11T00:40:50.878Z,32.33
2019-02-11T00:43:27.642Z,20.92
2019-02-11T00:46:04.420Z,9.85
2019-02-11T00:48:41.615Z,12.55
2019-02-11T00:51:18.373Z,14.35
2019-02-11T00:53:55.149Z,35.38
2019-02-11T00:56:32.145Z,16.20
2019-02-11T00:59:08.921Z,18.75
2019-02-11T01:01:45.896Z,15.63
2019-02-11T01:04:22.666Z,18.80
2019-02-11T01:06:59.450Z,19.37
2019-02-11T01:09:36.223Z,17.65
2019-02-11T01:12:13.109Z,24.07
2019-02-11T01:14:49.874Z,20.37
2019-02-11T01:17:27.067Z,15.00
2019-02-11T01:20:04.252Z,31.52
2019-02-11T01:22:41.127Z,22.50
2019-02-11T01:25:17.897Z,32.15
2019-02-11T01:27:55.706Z,19.92
2019-02-11T01:30:32.472Z,29.55
2019-02-11T01:33:09.356Z,34.92
2019-02-11T01:35:46.232Z,24.37
2019-02-11T01:38:23.011Z,33.18
2019-02-11T01:41:00.814Z,36.77
2019-02-11T01:43:38.604Z,29.12
2019-02-11T01:46:15.371Z,15.60
2019-02-11T01:48:52.167Z,14.68
2019-02-11T01:51:28.931Z,9.88
2019-02-11T01:54:05.714Z,7.20
2019-02-11T01:56:42.527Z,7.62
2019-02-11T01:59:19.253Z,8.95
2019-02-11T02:01:56.144Z,8.58
2019-02-11T02:04:32.916Z,8.05
2019-02-11T02:07:09.694Z,8.85
2019-02-11T02:09:46.389Z,8.50
2019-02-11T02:12:23.246Z,8.05
2019-02-11T02:15:00.018Z,7.22
2019-02-11T02:17:36.789Z,5.92
2019-02-11T02:20:15.305Z,7.57
2019-02-11T02:22:52.182Z,7.95
2019-02-11T02:25:28.967Z,8.45
2019-02-11T02:28:05.832Z,6.55
2019-02-11T02:30:43.439Z,5.80
2019-02-11T02:33:20.352Z,6.53
2019-02-11T02:35:57.184Z,6.12
2019-02-11T02:38:33.970Z,7.87
2019-02-11T02:41:11.158Z,5.92
2019-02-11T02:43:55.107Z,6.35
2019-02-11T02:46:26.439Z,5.78
2019-02-11T02:49:03.219Z,6.20
2019-02-11T02:51:39.991Z,7.17
2019-02-11T02:54:16.769Z,4.92
2019-02-11T02:56:53.545Z,6.75
2019-02-11T02:59:30.324Z,5.22
2019-02-11T03:02:07.085Z,3.20
2019-02-11T03:04:45.057Z,5.72
2019-02-11T03:07:21.881Z,6.17
2019-02-11T03:09:58.649Z,4.60
2019-02-11T03:12:36.873Z,4.67
2019-02-11T03:15:13.635Z,5.00
2019-02-11T03:17:50.305Z,4.80
2019-02-11T03:20:27.084Z,6.42
2019-02-11T03:23:03.850Z,4.03
2019-02-11T03:25:40.634Z,4.28
2019-02-11T03:28:17.410Z,3.83
2019-02-11T03:30:54.194Z,3.65
2019-02-11T03:33:31.071Z,2.70
2019-02-11T03:36:07.845Z,2.50
2019-02-11T03:38:45.028Z,2.90
2019-02-11T03:41:22.518Z,2.22
2019-02-11T03:43:59.294Z,3.20
2019-02-11T03:46:36.076Z,2.72
2019-02-11T03:49:13.152Z,3.35
2019-02-11T03:51:50.027Z,1.95
2019-02-11T03:54:26.812Z,2.30
2019-02-11T03:57:03.577Z,2.42
2019-02-11T03:59:40.362Z,2.00
2019-02-11T04:02:17.239Z,2.17
2019-02-11T04:04:54.009Z,4.12
2019-02-11T04:07:30.792Z,6.28
2019-02-11T04:10:10.689Z,3.87
2019-02-11T04:12:48.530Z,5.12
2019-02-11T04:15:25.309Z,3.90
2019-02-11T04:18:02.074Z,3.35
2019-02-11T04:20:38.859Z,2.67
2019-02-11T04:23:15.731Z,3.40
2019-02-11T04:25:52.510Z,4.55
2019-02-11T04:28:29.309Z,3.75
2019-02-11T04:31:06.056Z,4.03
2019-02-11T04:33:42.942Z,3.30
2019-02-11T04:36:19.713Z,3.08
2019-02-11T04:38:56.501Z,2.55
2019-02-11T04:41:33.360Z,3.67
2019-02-11T04:44:10.155Z,2.08
2019-02-11T04:46:46.929Z,3.75
2019-02-11T04:49:23.623Z,3.45
2019-02-11T04:52:00.677Z,2.95
2019-02-11T04:54:37.446Z,2.77
2019-02-11T04:57:14.222Z,2.47
2019-02-11T04:59:50.997Z,1.92
2019-02-11T05:02:27.890Z,5.35
2019-02-11T05:05:05.811Z,1.72
2019-02-11T05:07:42.567Z,1.87
2019-02-11T05:10:19.345Z,3.03
2019-02-11T05:12:56.123Z,3.42
2019-02-11T05:15:32.774Z,3.77
2019-02-11T05:18:09.559Z,3.00
2019-02-11T05:20:46.653Z,2.75
2019-02-11T05:23:23.375Z,2.35
2019-02-11T05:26:00.200Z,4.05
2019-02-11T05:28:36.968Z,4.12
2019-02-11T05:31:13.740Z,5.40
2019-02-11T05:33:50.615Z,4.10
2019-02-11T05:36:27.385Z,5.08
2019-02-11T05:39:05.492Z,3.50
2019-02-11T05:41:42.283Z,1.52
2019-02-11T05:44:19.360Z,3.77
2019-02-11T05:46:56.020Z,1.37
2019-02-11T05:49:32.719Z,1.80
2019-02-11T05:52:09.446Z,2.98
2019-02-11T05:54:46.640Z,3.87
2019-02-11T05:57:23.306Z,1.75
2019-02-11T06:00:00.463Z,3.15
2019-02-11T06:02:37.410Z,3.50
2019-02-11T06:05:14.185Z,3.52
2019-02-11T06:07:50.961Z,2.67
2019-02-11T06:10:27.731Z,3.65
2019-02-11T06:13:04.605Z,5.22
2019-02-11T06:15:41.386Z,9.05
2019-02-11T06:18:18.777Z,32.05
2019-02-11T06:20:55.965Z,19.92
2019-02-11T06:23:32.833Z,28.57
2019-02-11T06:26:09.610Z,16.37
2019-02-11T06:28:46.384Z,8.90
2019-02-11T06:31:23.177Z,10.95
2019-02-11T06:33:59.891Z,5.25
2019-02-11T06:36:36.721Z,5.10
2019-02-11T06:39:13.492Z,7.90
2019-02-11T06:41:50.279Z,3.98
2019-02-11T06:44:27.034Z,94.62
2019-02-11T06:47:03.713Z,21.65
2019-02-11T06:49:40.497Z,16.62
2019-02-11T06:52:17.272Z,8.45
2019-02-11T06:54:54.039Z,9.30
2019-02-11T06:57:30.812Z,15.40
2019-02-11T07:00:13.855Z,10.68
2019-02-11T07:02:51.033Z,8.25
2019-02-11T07:05:27.801Z,13.75
2019-02-11T07:08:04.464Z,15.58
2019-02-11T07:10:41.243Z,16.82
2019-02-11T07:13:18.031Z,10.38
2019-02-11T07:15:54.806Z,8.00
2019-02-11T07:18:31.466Z,7.28
2019-02-11T07:21:08.660Z,4.67
2019-02-11T07:23:45.489Z,6.42
2019-02-11T07:26:22.624Z,5.33
2019-02-11T07:28:59.385Z,4.42
2019-02-11T07:31:36.177Z,6.92
2019-02-11T07:34:12.946Z,6.20
2019-02-11T07:36:49.612Z,9.43
2019-02-11T07:39:26.392Z,7.35
2019-02-11T07:42:16.799Z,11.08
2019-02-11T07:44:54.590Z,31.33
2019-02-11T07:47:31.774Z,4.78
2019-02-11T07:50:08.863Z,17.57
2019-02-11T07:52:46.049Z,11.70
2019-02-11T07:55:22.812Z,5.03
2019-02-11T07:57:59.593Z,4.75
2019-02-11T08:00:36.370Z,6.03
2019-02-11T08:03:13.250Z,3.58
2019-02-11T08:05:49.910Z,3.62
2019-02-11T08:08:26.690Z,2.85
2019-02-11T08:11:04.391Z,3.12
2019-02-11T08:13:41.270Z,7.30
2019-02-11T08:16:18.061Z,5.30
2019-02-11T08:18:54.914Z,3.20
2019-02-11T08:21:49.580Z,6.00
2019-02-11T08:24:26.297Z,7.75
2019-02-11T08:27:03.282Z,5.90
2019-02-11T08:29:40.055Z,4.12
2019-02-11T08:32:17.542Z,5.42
2019-02-11T08:34:54.226Z,4.00
2019-02-11T08:37:30.992Z,5.25
2019-02-11T08:40:09.985Z,5.65
2019-02-11T08:42:47.705Z,2.70
2019-02-11T08:45:24.481Z,4.15
2019-02-11T08:48:01.159Z,5.35
2019-02-11T08:50:37.930Z,6.12
2019-02-11T08:53:14.624Z,7.22
2019-02-11T08:55:51.395Z,6.62
2019-02-11T08:58:28.170Z,8.83
2019-02-11T09:01:04.938Z,12.23
2019-02-11T09:03:41.826Z,8.98
2019-02-11T09:06:18.610Z,11.35
2019-02-11T09:08:55.360Z,13.55
2019-02-11T09:11:32.145Z,4.45
2019-02-11T09:14:08.864Z,11.10
2019-02-11T09:16:45.551Z,10.55
2019-02-11T09:19:22.375Z,12.88
2019-02-11T09:22:07.111Z,10.10
2019-02-11T09:24:37.770Z,11.20
2019-02-11T09:27:14.646Z,8.98
2019-02-11T09:29:51.423Z,13.00
2019-02-11T09:32:28.301Z,8.40
2019-02-11T09:35:05.984Z,12.60
2019-02-11T09:37:42.768Z,12.45
2019-02-11T09:40:19.539Z,11.23
2019-02-11T09:42:57.450Z,14.05
2019-02-11T09:45:34.220Z,14.95
2019-02-11T09:48:10.991Z,16.23
2019-02-11T09:50:49.381Z,21.90
2019-02-11T09:53:26.487Z,11.83
2019-02-11T09:56:03.260Z,12.30
2019-02-11T09:58:40.035Z,11.95
2019-02-11T10:01:16.816Z,20.40
2019-02-11T10:03:53.704Z,37.98
2019-02-11T10:06:30.479Z,40.75
2019-02-11T10:09:07.264Z,36.20
2019-02-11T10:11:45.042Z,28.80
2019-02-11T10:14:21.815Z,43.83
2019-02-11T10:16:58.603Z,14.28
2019-02-11T10:19:35.364Z,14.87
2019-02-11T10:22:12.245Z,16.12
2019-02-11T10:24:50.555Z,18.15
2019-02-11T10:27:27.334Z,14.87
2019-02-11T10:30:05.861Z,18.73
2019-02-11T10:32:42.633Z,23.20
2019-02-11T10:35:19.725Z,30.80
2019-02-11T10:37:56.702Z,21.52
2019-02-11T10:40:33.475Z,31.10
2019-02-11T10:43:10.359Z,37.08
2019-02-11T10:45:47.132Z,20.00
2019-02-11T10:48:25.433Z,34.45
2019-02-11T10:51:02.331Z,22.07
2019-02-11T10:53:39.186Z,20.27
2019-02-11T10:56:15.967Z,15.88
2019-02-11T10:58:52.738Z,18.23
2019-02-11T11:01:29.628Z,14.35
2019-02-11T11:04:06.402Z,19.55
2019-02-11T11:06:43.178Z,21.68
2019-02-11T11:09:20.046Z,19.92
2019-02-11T11:11:56.828Z,24.15
2019-02-11T11:14:34.716Z,23.73
2019-02-11T11:17:12.526Z,24.50
2019-02-11T11:19:49.405Z,25.23
2019-02-11T11:22:26.340Z,17.42
2019-02-11T11:25:03.167Z,25.43
2019-02-11T11:27:39.930Z,7.50
2019-02-11T11:30:18.193Z,11.23
2019-02-11T11:32:55.450Z,11.85
2019-02-11T11:35:32.204Z,12.28
2019-02-11T11:38:08.979Z,9.60
2019-02-11T11:40:45.750Z,9.98
2019-02-11T11:43:23.564Z,9.58
2019-02-11T11:46:00.323Z,12.58
2019-02-11T11:48:37.112Z,11.43
2019-02-11T11:51:13.891Z,10.40
2019-02-11T11:53:50.654Z,9.50
2019-02-11T11:56:27.441Z,15.80
2019-02-11T11:59:04.206Z,9.05
2019-02-11T12:01:41.006Z,41.83
2019-02-11T12:04:17.754Z,32.95
2019-02-11T12:06:54.532Z,12.37
2019-02-11T12:09:31.348Z,16.73
2019-02-11T12:12:08.397Z,16.37
2019-02-11T12:14:45.171Z,24.72
2019-02-11T12:17:22.866Z,14.43
2019-02-11T12:19:59.855Z,15.90
2019-02-11T12:22:36.734Z,9.48
2019-02-11T12:25:16.173Z,11.90
2019-02-11T12:27:52.948Z,6.55
2019-02-11T12:30:29.739Z,15.63
2019-02-11T12:33:06.792Z,9.70
2019-02-11T12:35:43.577Z,15.08
2019-02-11T12:38:20.356Z,11.80
2019-02-11T12:40:57.102Z,18.15
2019-02-11T12:43:33.811Z,9.63
2019-02-11T12:46:10.585Z,13.88
2019-02-11T12:48:47.348Z,12.53
2019-02-11T12:51:24.242Z,7.40
2019-02-11T12:54:01.006Z,9.33
2019-02-11T12:56:37.769Z,10.50
2019-02-11T12:59:14.553Z,6.35
2019-02-11T13:01:51.336Z,6.00
2019-02-11T13:04:29.638Z,11.63
2019-02-11T13:07:06.429Z,6.58
2019-02-11T13:09:43.308Z,6.60
2019-02-11T13:12:20.069Z,10.18
2019-02-11T13:14:56.947Z,13.53
2019-02-11T13:17:35.018Z,11.90
2019-02-11T13:20:15.113Z,6.20
2019-02-11T13:22:51.993Z,6.50
2019-02-11T13:25:28.871Z,8.65
2019-02-11T13:28:05.650Z,10.35
2019-02-11T13:30:42.413Z,8.30
2019-02-11T13:33:19.207Z,8.15
2019-02-11T13:35:55.968Z,12.45
2019-02-11T13:38:32.644Z,10.30
2019-02-11T13:41:09.526Z,10.88
2019-02-11T13:43:51.160Z,10.30
2019-02-11T13:46:27.995Z,5.15
2019-02-11T13:49:04.776Z,7.90
2019-02-11T13:51:41.549Z,10.00
2019-02-11T13:54:18.309Z,8.65
2019-02-11T13:56:54.996Z,6.92
2019-02-11T13:59:32.085Z,9.50
2019-02-11T14:02:08.742Z,9.20
2019-02-11T14:04:45.471Z,29.70
2019-02-11T14:07:22.193Z,20.97
2019-02-11T14:10:02.038Z,16.10
2019-02-11T14:12:37.597Z,13.08
2019-02-11T14:15:15.061Z,17.23
2019-02-11T14:18:09.408Z,11.93
2019-02-11T14:20:31.294Z,17.95
2019-02-11T14:23:08.068Z,11.70
2019-02-11T14:25:47.200Z,20.97
2019-02-11T14:28:23.262Z,22.10
2019-02-11T14:31:00.349Z,19.90
2019-02-11T14:33:37.424Z,19.00
2019-02-11T14:36:14.617Z,22.73
2019-02-11T14:38:51.809Z,17.12
2019-02-11T14:41:28.864Z,21.25
2019-02-11T14:44:05.961Z,18.95
2019-02-11T14:46:42.930Z,13.62
2019-02-11T14:49:20.025Z,11.10
2019-02-11T14:51:57.203Z,6.85
2019-02-11T14:54:34.176Z,10.68
2019-02-11T14:57:11.450Z,10.53
2019-02-11T14:59:48.357Z,18.37
2019-02-11T15:02:25.228Z,14.13
2019-02-11T15:05:02.069Z,10.20
2019-02-11T15:07:39.086Z,15.38
2019-02-11T15:10:16.255Z,14.80
2019-02-11T15:12:53.040Z,12.07
2019-02-11T15:15:29.817Z,13.32
2019-02-11T15:18:06.604Z,12.68
2019-02-11T15:20:44.286Z,14.47
2019-02-11T15:23:21.169Z,19.70
2019-02-11T15:25:57.944Z,13.45
2019-02-11T15:28:34.727Z,17.35
2019-02-11T15:31:11.497Z,14.28
2019-02-11T15:33:48.375Z,8.05
2019-02-11T15:36:25.151Z,16.10
2019-02-11T15:39:01.933Z,13.05
2019-02-11T15:41:40.350Z,10.18
2019-02-11T15:44:17.087Z,17.55
2019-02-11T15:46:53.886Z,14.18
2019-02-11T15:49:30.678Z,18.82
2019-02-11T15:52:07.536Z,21.77
2019-02-11T15:54:44.314Z,9.90
2019-02-11T15:57:21.394Z,13.13
2019-02-11T15:59:58.174Z,13.60
2019-02-11T16:02:35.063Z,18.75
2019-02-11T16:05:16.087Z,17.82
2019-02-11T16:07:50.445Z,14.85
2019-02-11T16:10:28.919Z,13.90
2019-02-11T16:13:05.939Z,10.93
2019-02-11T16:15:42.721Z,15.13
2019-02-11T16:18:19.500Z,18.90
2019-02-11T16:20:56.275Z,22.17
2019-02-11T16:23:33.255Z,18.67
2019-02-11T16:26:10.035Z,30.92
2019-02-11T16:28:46.695Z,17.02
2019-02-11T16:31:23.484Z,13.83
2019-02-11T16:34:00.310Z,20.80
2019-02-11T16:36:37.122Z,17.37
2019-02-11T16:39:13.798Z,24.87
2019-02-11T16:41:50.685Z,24.12
2019-02-11T16:44:27.461Z,39.95
2019-02-11T16:47:04.748Z,30.20
2019-02-11T16:49:41.529Z,40.12
2019-02-11T16:52:18.393Z,32.55
2019-02-11T16:54:55.177Z,69.40
2019-02-11T16:57:31.956Z,68.72
2019-02-11T17:00:20.714Z,76.92
2019-02-11T17:02:57.445Z,58.55
2019-02-11T17:05:34.149Z,51.00
2019-02-11T17:08:10.935Z,48.98
2019-02-11T17:10:47.811Z,28.60
2019-02-11T17:13:24.567Z,24.65
2019-02-11T17:16:01.368Z,27.52
2019-02-11T17:18:38.236Z,29.57
2019-02-11T17:21:15.023Z,29.27
2019-02-11T17:23:51.991Z,29.48
2019-02-11T17:26:28.772Z,31.95
2019-02-11T17:29:05.553Z,37.48
2019-02-11T17:31:42.331Z,26.90
2019-02-11T17:34:19.090Z,35.90
2019-02-11T17:36:55.878Z,33.28
2019-02-11T17:39:32.653Z,42.25
2019-02-11T17:42:09.431Z,42.83
2019-02-11T17:44:46.193Z,34.55
2019-02-11T17:47:22.978Z,26.77
2019-02-11T17:49:59.763Z,14.43
2019-02-11T17:52:36.566Z,18.12
2019-02-11T17:55:14.938Z,19.32
2019-02-11T17:57:51.604Z,17.45
2019-02-11T18:00:37.721Z,20.37
2019-02-11T18:03:14.688Z,17.32
2019-02-11T18:05:51.469Z,16.85
2019-02-11T18:08:28.242Z,25.10
2019-02-11T18:11:05.020Z,26.05
2019-02-11T18:13:41.666Z,43.05
2019-02-11T18:16:18.482Z,32.28
2019-02-11T18:18:55.236Z,32.38
2019-02-11T18:21:32.885Z,20.30
2019-02-11T18:24:10.830Z,25.57
2019-02-11T18:26:47.621Z,22.22
2019-02-11T18:29:24.277Z,23.73
2019-02-11T18:32:01.269Z,17.20
2019-02-11T18:34:38.043Z,19.52
2019-02-11T18:37:14.880Z,24.85
2019-02-11T18:39:51.703Z,28.35
2019-02-11T18:42:28.769Z,22.27
2019-02-11T18:45:12.520Z,31.62
2019-02-11T18:47:50.540Z,34.35
2019-02-11T18:50:27.606Z,24.60
2019-02-11T18:53:04.575Z,24.52
2019-02-11T18:55:41.470Z,19.55
2019-02-11T18:58:18.752Z,22.05
2019-02-11T19:00:55.535Z,20.65
2019-02-11T19:03:32.299Z,21.80
2019-02-11T19:06:09.073Z,17.52
2019-02-11T19:08:45.843Z,15.60
2019-02-11T19:11:22.632Z,14.40
2019-02-11T19:13:59.395Z,22.70
2019-02-11T19:16:36.394Z,17.98
2019-02-11T19:19:13.148Z,19.05
2019-02-11T19:21:50.052Z,15.85
2019-02-11T19:24:26.817Z,17.60
2019-02-11T19:27:04.501Z,17.52
2019-02-11T19:29:41.292Z,31.07
2019-02-11T19:32:18.166Z,33.02
2019-02-11T19:34:55.460Z,22.00
2019-02-11T19:37:32.227Z,21.77
2019-02-11T19:40:17.973Z,23.18
2019-02-11T19:42:55.089Z,24.12
2019-02-11T19:45:31.865Z,25.50
2019-02-11T19:48:10.057Z,28.50
2019-02-11T19:50:49.746Z,15.95
2019-02-11T19:53:26.500Z,16.17
2019-02-11T19:56:03.198Z,22.13
2019-02-11T19:58:39.877Z,22.32
2019-02-11T20:01:16.591Z,22.05
2019-02-11T20:03:53.281Z,28.70
2019-02-11T20:06:30.139Z,19.27
2019-02-11T20:09:07.151Z,15.93
2019-02-11T20:11:44.832Z,19.62
2019-02-11T20:14:21.549Z,26.62
2019-02-11T20:16:58.230Z,22.05
2019-02-11T20:19:34.919Z,20.23
2019-02-11T20:22:11.623Z,21.95
2019-02-11T20:24:48.420Z,20.72
2019-02-11T20:27:25.110Z,17.82
2019-02-11T20:30:01.860Z,19.90
2019-02-11T20:32:38.944Z,18.05
2019-02-11T20:35:15.820Z,16.42
2019-02-11T20:37:52.611Z,15.85
2019-02-11T20:40:30.694Z,12.88
2019-02-11T20:43:07.797Z,21.15
2019-02-11T20:45:44.567Z,21.20
2019-02-11T20:48:21.456Z,18.82
2019-02-11T20:50:58.221Z,14.65
2019-02-11T20:53:35.103Z,20.12
2019-02-11T20:56:11.822Z,17.67
2019-02-11T20:58:48.540Z,21.40
2019-02-11T21:01:25.328Z,28.30
2019-02-11T21:04:02.096Z,20.10
2019-02-11T21:06:38.891Z,21.48
2019-02-11T21:09:15.645Z,13.98
2019-02-11T21:11:52.638Z,28.02
2019-02-11T21:14:30.646Z,19.85
2019-02-11T21:17:07.419Z,17.27
2019-02-11T21:19:44.297Z,16.75
2019-02-11T21:22:21.175Z,18.52
2019-02-11T21:24:58.045Z,17.90
2019-02-11T21:27:34.822Z,18.05
2019-02-11T21:30:14.551Z,12.27
2019-02-11T21:32:51.343Z,17.00
2019-02-11T21:35:28.123Z,13.88
2019-02-11T21:38:04.809Z,12.50
2019-02-11T21:40:41.833Z,12.60
2019-02-11T21:43:18.640Z,12.03
2019-02-11T21:45:55.433Z,13.48
2019-02-11T21:48:32.508Z,12.45
2019-02-11T21:51:09.173Z,14.05
2019-02-11T21:53:46.062Z,25.27
2019-02-11T21:56:22.839Z,21.75
2019-02-11T21:58:59.617Z,16.73
2019-02-11T22:01:36.396Z,21.68
2019-02-11T22:04:13.161Z,20.27
2019-02-11T22:06:49.929Z,17.30
2019-02-11T22:09:26.716Z,14.93
2019-02-11T22:12:03.521Z,17.10
2019-02-11T22:14:40.264Z,15.35
2019-02-11T22:17:17.968Z,15.68
2019-02-11T22:19:54.947Z,15.88
2019-02-11T22:22:31.710Z,12.68
2019-02-11T22:25:11.122Z,17.05
2019-02-11T22:27:47.841Z,16.85
2019-02-11T22:30:25.327Z,26.82
2019-02-11T22:33:02.191Z,19.70
2019-02-11T22:35:38.966Z,24.27
2019-02-11T22:38:15.723Z,26.70
2019-02-11T22:40:52.531Z,19.85
2019-02-11T22:43:29.297Z,26.23
2019-02-11T22:46:06.073Z,21.97
2019-02-11T22:48:42.849Z,25.37
2019-02-11T22:51:21.071Z,23.57
2019-02-11T22:53:57.854Z,21.27
2019-02-11T22:56:34.602Z,21.73
2019-02-11T22:59:11.384Z,19.85
2019-02-11T23:01:48.673Z,20.60
2019-02-11T23:04:25.462Z,14.20
2019-02-11T23:07:02.218Z,25.50
2019-02-11T23:09:38.997Z,15.68
2019-02-11T23:12:16.185Z,19.55
2019-02-11T23:14:52.956Z,16.37
2019-02-11T23:17:29.745Z,21.65
2019-02-11T23:20:08.499Z,16.82
2019-02-11T23:22:45.344Z,13.18
2019-02-11T23:25:22.113Z,11.40
2019-02-11T23:27:58.892Z,13.93
2019-02-11T23:30:35.548Z,16.52
2019-02-11T23:33:12.337Z,8.85
2019-02-11T23:35:49.102Z,10.80
2019-02-11T23:38:25.879Z,9.18
2019-02-11T23:41:02.778Z,8.08
2019-02-11T23:43:39.648Z,9.15
2019-02-11T23:46:16.420Z,8.78
2019-02-11T23:48:53.199Z,12.00
2019-02-11T23:51:31.000Z,23.42
2019-02-11T23:54:07.775Z,8.55
2019-02-11T23:56:44.534Z,16.70
2019-02-11T23:59:21.311Z,14.50
